createdAt,value
2019-02-27T00:01:24.779Z,4.80
2019-02-27T00:03:59.845Z,4.80
2019-02-27T00:06:32.063Z,4.80
2019-02-27T00:09:09.443Z,4.90
2019-02-27T00:11:46.713Z,4.80
2019-02-27T00:14:19.465Z,4.80
2019-02-27T00:16:53.410Z,4.80
2019-02-27T00:19:30.967Z,4.80
2019-02-27T00:22:03.562Z,4.80
2019-02-27T00:24:38.238Z,4.80
2019-02-27T00:27:14.619Z,4.80
2019-02-27T00:29:44.995Z,4.80
2019-02-27T00:32:21.225Z,4.70
2019-02-27T00:34:54.982Z,4.70
2019-02-27T00:37:28.898Z,4.70
2019-02-27T00:40:05.321Z,4.60
2019-02-27T00:42:35.871Z,4.60
2019-02-27T00:45:08.933Z,4.50
2019-02-27T00:47:41.312Z,4.40
2019-02-27T00:50:14.440Z,4.40
2019-02-27T00:52:50.906Z,4.40
2019-02-27T00:55:25.579Z,4.30
2019-02-27T00:57:59.362Z,4.20
2019-02-27T01:00:31.683Z,4.20
2019-02-27T01:03:05.406Z,4.10
2019-02-27T01:05:41.228Z,4.10
2019-02-27T01:08:15.646Z,4.10
2019-02-27T01:10:49.313Z,4.00
2019-02-27T01:13:21.828Z,4.00
2019-02-27T01:15:58.439Z,3.90
2019-02-27T01:18:32.419Z,3.90
2019-02-27T01:21:05.598Z,3.90
2019-02-27T01:23:43.863Z,3.90
2019-02-27T01:26:17.887Z,3.80
2019-02-27T01:28:48.618Z,3.80
2019-02-27T01:31:24.045Z,3.80
2019-02-27T01:34:00.155Z,3.90
2019-02-27T01:36:33.786Z,4.00
2019-02-27T01:39:11.378Z,4.10
2019-02-27T01:41:45.119Z,4.20
2019-02-27T01:44:17.350Z,4.30
2019-02-27T01:46:52.135Z,4.40
2019-02-27T01:49:22.830Z,4.60
2019-02-27T01:51:55.077Z,4.70
2019-02-27T01:54:26.760Z,4.60
2019-02-27T01:56:59.907Z,4.70
2019-02-27T01:59:34.245Z,4.70
2019-02-27T02:02:08.992Z,4.70
2019-02-27T02:04:42.153Z,4.70
2019-02-27T02:07:16.832Z,4.70
2019-02-27T02:09:52.133Z,4.70
2019-02-27T02:12:30.915Z,4.70
2019-02-27T02:15:32.006Z,4.70
2019-02-27T02:18:53.510Z,4.70
2019-02-27T02:21:54.667Z,4.70
2019-02-27T02:25:13.536Z,4.70
2019-02-27T02:28:18.158Z,4.60
2019-02-27T02:31:41.074Z,4.60
2019-02-27T02:34:27.933Z,4.50
2019-02-27T02:37:37.786Z,4.50
2019-02-27T02:40:33.247Z,4.40
2019-02-27T02:43:41.546Z,4.50
2019-02-27T02:46:47.336Z,4.40
2019-02-27T02:49:52.863Z,4.30
2019-02-27T02:53:02.738Z,4.20
2019-02-27T02:55:58.595Z,4.20
2019-02-27T02:59:00.076Z,4.30
2019-02-27T03:01:57.216Z,4.20
2019-02-27T03:05:24.616Z,4.10
2019-02-27T03:08:26.462Z,4.00
2019-02-27T03:11:38.569Z,3.90
2019-02-27T03:14:40.261Z,3.90
2019-02-27T03:17:46.751Z,3.90
2019-02-27T03:21:00.289Z,3.90
2019-02-27T03:24:15.583Z,3.90
2019-02-27T03:27:34.306Z,3.90
2019-02-27T03:30:48.073Z,3.90
2019-02-27T03:34:05.785Z,3.90
2019-02-27T03:37:00.451Z,3.90
2019-02-27T03:40:15.169Z,3.80
2019-02-27T03:43:45.663Z,3.80
2019-02-27T03:46:50.148Z,3.80
2019-02-27T03:50:01.283Z,3.80
2019-02-27T03:53:01.379Z,3.70
2019-02-27T03:56:08.711Z,3.60
2019-02-27T03:59:20.526Z,3.60
2019-02-27T04:02:47.715Z,3.60
2019-02-27T04:05:52.455Z,3.50
2019-02-27T04:09:20.118Z,3.50
2019-02-27T04:11:52.656Z,3.50
2019-02-27T04:14:40.219Z,3.50
2019-02-27T04:17:07.762Z,3.50
2019-02-27T04:19:41.351Z,3.50
2019-02-27T04:22:13.815Z,3.50
2019-02-27T04:24:46.158Z,3.40
2019-02-27T04:27:21.220Z,3.40
2019-02-27T04:29:53.537Z,3.50
2019-02-27T04:32:27.236Z,3.50
2019-02-27T04:35:06.330Z,3.40
2019-02-27T04:37:42.486Z,3.40
2019-02-27T04:40:19.207Z,3.30
2019-02-27T04:42:53.092Z,3.30
2019-02-27T04:45:25.726Z,3.30
2019-02-27T04:47:58.855Z,3.20
2019-02-27T04:50:33.388Z,3.20
2019-02-27T04:53:07.488Z,3.10
2019-02-27T04:55:38.040Z,3.10
2019-02-27T04:58:11.362Z,3.10
2019-02-27T05:00:46.218Z,3.10
2019-02-27T05:03:21.667Z,3.00
2019-02-27T05:05:54.306Z,3.00
2019-02-27T05:08:28.135Z,2.90
2019-02-27T05:11:01.402Z,2.90
2019-02-27T05:13:36.143Z,2.90
2019-02-27T05:16:13.916Z,2.80
2019-02-27T05:18:51.871Z,2.70
2019-02-27T05:21:27.198Z,2.70
2019-02-27T05:24:05.207Z,2.70
2019-02-27T05:26:37.310Z,2.70
2019-02-27T05:29:11.355Z,2.60
2019-02-27T05:31:44.450Z,2.60
2019-02-27T05:34:18.153Z,2.50
2019-02-27T05:36:52.201Z,2.50
2019-02-27T05:39:28.855Z,2.50
2019-02-27T05:42:06.074Z,2.50
2019-02-27T05:44:40.960Z,2.50
2019-02-27T05:47:15.530Z,2.50
2019-02-27T05:49:49.222Z,2.50
2019-02-27T05:52:24.357Z,2.50
2019-02-27T05:54:58.142Z,2.40
2019-02-27T05:57:32.395Z,2.40
2019-02-27T06:00:07.273Z,2.30
2019-02-27T06:02:44.996Z,2.30
2019-02-27T06:05:17.985Z,2.20
2019-02-27T06:07:51.774Z,2.10
2019-02-27T06:10:24.479Z,2.20
2019-02-27T06:12:59.528Z,2.20
2019-02-27T06:15:32.960Z,2.20
2019-02-27T06:18:06.625Z,2.10
2019-02-27T06:20:38.930Z,2.20
2019-02-27T06:23:10.251Z,2.20
2019-02-27T06:25:40.282Z,2.30
2019-02-27T06:28:18.515Z,2.30
2019-02-27T06:30:47.782Z,2.30
2019-02-27T06:33:21.412Z,2.40
2019-02-27T06:35:54.314Z,2.50
2019-02-27T06:38:25.342Z,2.60
2019-02-27T06:40:55.590Z,2.60
2019-02-27T06:43:28.736Z,2.70
2019-02-27T06:45:59.335Z,2.70
2019-02-27T06:48:30.414Z,2.80
2019-02-27T06:51:02.375Z,2.90
2019-02-27T06:53:37.658Z,2.90
2019-02-27T06:56:10.979Z,3.00
2019-02-27T06:58:44.255Z,3.00
2019-02-27T07:01:15.139Z,3.10
2019-02-27T07:03:47.931Z,3.10
2019-02-27T07:06:22.256Z,3.20
2019-02-27T07:08:55.042Z,3.20
2019-02-27T07:11:30.823Z,3.30
2019-02-27T07:14:01.134Z,3.30
2019-02-27T07:16:32.022Z,3.30
2019-02-27T07:19:05.118Z,3.30
2019-02-27T07:21:38.919Z,3.40
2019-02-27T07:24:13.796Z,3.40
2019-02-27T07:26:47.592Z,3.40
2019-02-27T07:29:21.940Z,3.40
2019-02-27T07:31:53.730Z,3.50
2019-02-27T07:34:29.307Z,3.60
2019-02-27T07:37:02.660Z,3.60
2019-02-27T07:39:37.310Z,3.70
2019-02-27T07:42:10.208Z,3.70
2019-02-27T07:44:42.225Z,3.70
2019-02-27T07:47:15.683Z,3.80
2019-02-27T07:49:48.328Z,3.80
2019-02-27T07:52:20.507Z,3.90
2019-02-27T07:54:55.047Z,3.90
2019-02-27T07:57:30.720Z,3.90
2019-02-27T08:00:04.799Z,3.90
2019-02-27T08:02:41.011Z,3.90
2019-02-27T08:05:16.550Z,3.90
2019-02-27T08:07:50.029Z,4.00
2019-02-27T08:10:25.471Z,4.10
2019-02-27T08:13:00.768Z,4.10
2019-02-27T08:15:32.926Z,4.10
2019-02-27T08:18:07.187Z,4.20
2019-02-27T08:20:37.843Z,4.20
2019-02-27T08:23:10.623Z,4.20
2019-02-27T08:25:44.479Z,4.20
2019-02-27T08:28:16.619Z,4.30
2019-02-27T08:30:48.343Z,4.40
2019-02-27T08:33:18.943Z,4.50
2019-02-27T08:35:51.710Z,4.60
2019-02-27T08:38:28.407Z,4.60
2019-02-27T08:41:01.054Z,4.60
2019-02-27T08:43:35.840Z,4.70
2019-02-27T08:46:12.577Z,4.80
2019-02-27T08:48:45.031Z,4.90
2019-02-27T08:51:19.263Z,4.80
2019-02-27T08:53:52.895Z,4.80
2019-02-27T08:56:25.666Z,4.90
2019-02-27T08:58:59.584Z,5.00
2019-02-27T09:01:33.639Z,5.10
2019-02-27T09:04:12.251Z,5.20
2019-02-27T09:06:44.799Z,5.40
2019-02-27T09:09:19.495Z,5.50
2019-02-27T09:11:53.115Z,5.70
2019-02-27T09:14:30.015Z,6.00
2019-02-27T09:17:00.439Z,6.20
2019-02-27T09:19:31.519Z,6.40
2019-02-27T09:22:03.189Z,6.60
2019-02-27T09:24:34.926Z,6.70
2019-02-27T09:27:07.519Z,6.80
2019-02-27T09:29:41.983Z,6.90
2019-02-27T09:32:16.950Z,6.80
2019-02-27T09:34:47.550Z,6.70
2019-02-27T09:37:18.142Z,6.60
2019-02-27T09:39:51.500Z,6.50
2019-02-27T09:42:26.210Z,6.30
2019-02-27T09:44:59.009Z,6.10
2019-02-27T09:47:36.112Z,6.10
2019-02-27T09:50:14.063Z,6.00
2019-02-27T09:52:46.407Z,6.00
2019-02-27T09:55:20.895Z,6.00
2019-02-27T09:57:53.865Z,6.00
2019-02-27T10:00:29.813Z,5.90
2019-02-27T10:03:00.412Z,5.90
2019-02-27T10:05:36.247Z,5.80
2019-02-27T10:08:03.567Z,5.70
2019-02-27T10:10:37.225Z,5.60
2019-02-27T10:13:09.180Z,5.60
2019-02-27T10:15:41.375Z,5.60
2019-02-27T10:18:18.242Z,5.50
2019-02-27T10:20:48.897Z,5.40
2019-02-27T10:23:22.182Z,5.40
2019-02-27T10:25:54.509Z,5.40
2019-02-27T10:28:39.717Z,5.40
2019-02-27T10:31:12.750Z,5.40
2019-02-27T10:33:47.430Z,5.40
2019-02-27T10:36:20.998Z,5.60
2019-02-27T10:38:53.654Z,5.60
2019-02-27T10:41:25.567Z,5.70
2019-02-27T10:43:58.360Z,5.80
2019-02-27T10:46:31.776Z,5.80
2019-02-27T10:49:07.726Z,5.90
2019-02-27T10:51:38.614Z,5.90
2019-02-27T10:54:11.902Z,5.90
2019-02-27T10:56:52.702Z,6.00
2019-02-27T10:59:28.615Z,6.00
2019-02-27T11:02:03.323Z,6.10
2019-02-27T11:04:38.908Z,6.30
2019-02-27T11:07:13.211Z,6.40
2019-02-27T11:09:52.774Z,6.60
2019-02-27T11:12:26.831Z,6.70
2019-02-27T11:14:58.440Z,6.80
2019-02-27T11:17:50.367Z,7.00
2019-02-27T11:20:28.363Z,7.20
2019-02-27T11:23:01.119Z,7.40
2019-02-27T11:25:34.206Z,7.60
2019-02-27T11:28:08.578Z,7.80
2019-02-27T11:30:44.805Z,7.90
2019-02-27T11:33:25.246Z,8.00
2019-02-27T11:35:46.759Z,8.20
2019-02-27T11:38:24.227Z,8.20
2019-02-27T11:40:57.118Z,8.30
2019-02-27T11:43:29.470Z,8.40
2019-02-27T11:46:06.081Z,8.50
2019-02-27T11:48:39.483Z,8.60
2019-02-27T11:51:12.030Z,8.60
2019-02-27T11:53:43.528Z,8.60
2019-02-27T11:56:13.290Z,8.70
2019-02-27T11:58:47.679Z,8.70
2019-02-27T12:01:22.009Z,8.80
2019-02-27T12:03:54.723Z,8.80
2019-02-27T12:06:27.847Z,8.80
2019-02-27T12:09:01.408Z,8.80
2019-02-27T12:11:34.399Z,8.80
2019-02-27T12:14:09.711Z,8.90
2019-02-27T12:16:43.134Z,8.90
2019-02-27T12:19:15.461Z,9.00
2019-02-27T12:21:50.076Z,9.00
2019-02-27T12:24:23.746Z,9.10
2019-02-27T12:26:57.407Z,9.10
2019-02-27T12:29:31.072Z,9.10
2019-02-27T12:32:06.119Z,9.20
2019-02-27T12:34:39.231Z,9.20
2019-02-27T12:37:23.930Z,9.20
2019-02-27T12:39:49.603Z,9.20
2019-02-27T12:42:21.291Z,9.20
2019-02-27T12:44:54.611Z,9.20
2019-02-27T12:47:27.663Z,9.20
2019-02-27T12:50:00.775Z,9.20
2019-02-27T12:52:32.011Z,9.20
2019-02-27T12:55:01.946Z,9.20
2019-02-27T12:57:35.974Z,9.20
2019-02-27T13:00:09.571Z,9.20
2019-02-27T13:02:39.694Z,9.30
2019-02-27T13:05:14.239Z,9.30
2019-02-27T13:07:46.846Z,9.30
2019-02-27T13:10:21.244Z,9.20
2019-02-27T13:12:55.070Z,9.20
2019-02-27T13:15:29.475Z,9.30
2019-02-27T13:17:59.874Z,9.30
2019-02-27T13:20:30.343Z,9.30
2019-02-27T13:23:05.003Z,9.20
2019-02-27T13:25:36.130Z,9.20
2019-02-27T13:28:09.791Z,9.10
2019-02-27T13:30:42.157Z,9.10
2019-02-27T13:33:13.506Z,9.10
2019-02-27T13:35:45.672Z,9.10
2019-02-27T13:38:20.705Z,9.10
2019-02-27T13:40:55.806Z,9.10
2019-02-27T13:43:27.732Z,9.00
2019-02-27T13:45:59.474Z,8.90
2019-02-27T13:48:33.395Z,8.90
2019-02-27T13:51:06.401Z,8.80
2019-02-27T13:53:36.918Z,8.80
2019-02-27T13:56:07.550Z,8.90
2019-02-27T13:58:41.278Z,8.90
2019-02-27T14:01:15.152Z,8.90
2019-02-27T14:03:51.910Z,8.90
2019-02-27T14:06:26.951Z,8.90
2019-02-27T14:09:00.173Z,8.90
2019-02-27T14:11:35.998Z,8.90
2019-02-27T14:14:09.264Z,8.90
2019-02-27T14:16:43.136Z,8.90
2019-02-27T14:19:18.248Z,9.00
2019-02-27T14:21:50.942Z,9.10
2019-02-27T14:24:26.888Z,9.10
2019-02-27T14:26:59.967Z,9.20
2019-02-27T14:29:34.563Z,9.20
2019-02-27T14:32:06.592Z,9.20
2019-02-27T14:34:40.985Z,9.20
2019-02-27T14:37:16.519Z,9.20
2019-02-27T14:39:50.175Z,9.10
2019-02-27T14:42:23.522Z,9.10
2019-02-27T14:44:55.273Z,9.10
2019-02-27T14:47:29.896Z,9.00
2019-02-27T14:50:06.498Z,9.00
2019-02-27T14:52:39.102Z,8.90
2019-02-27T14:55:17.131Z,8.90
2019-02-27T14:57:52.162Z,8.90
2019-02-27T15:00:27.136Z,8.90
2019-02-27T15:03:00.082Z,8.90
2019-02-27T15:05:34.107Z,8.90
2019-02-27T15:08:07.552Z,8.80
2019-02-27T15:10:41.163Z,8.80
2019-02-27T15:13:15.270Z,8.70
2019-02-27T15:15:51.418Z,8.70
2019-02-27T15:18:27.975Z,8.60
2019-02-27T15:21:02.219Z,8.50
2019-02-27T15:23:37.923Z,8.50
2019-02-27T15:26:13.912Z,8.40
2019-02-27T15:28:45.155Z,8.30
2019-02-27T15:31:21.478Z,8.30
2019-02-27T15:33:56.527Z,8.30
2019-02-27T15:36:31.076Z,8.20
2019-02-27T15:39:04.191Z,8.20
2019-02-27T15:41:35.998Z,8.20
2019-02-27T15:44:06.508Z,8.10
2019-02-27T15:46:36.503Z,8.10
2019-02-27T15:49:12.081Z,8.10
2019-02-27T15:51:42.739Z,8.10
2019-02-27T15:54:13.767Z,8.00
2019-02-27T15:56:49.315Z,7.90
2019-02-27T15:59:22.414Z,7.80
2019-02-27T16:01:53.062Z,7.80
2019-02-27T16:04:24.159Z,7.70
2019-02-27T16:06:55.856Z,7.70
2019-02-27T16:09:31.826Z,7.60
2019-02-27T16:12:06.882Z,7.60
2019-02-27T16:14:42.876Z,7.60
2019-02-27T16:17:13.791Z,7.60
2019-02-27T16:19:46.975Z,7.60
2019-02-27T16:22:22.651Z,7.60
2019-02-27T16:24:56.166Z,7.50
2019-02-27T16:27:32.176Z,7.50
2019-02-27T16:30:03.715Z,7.50
2019-02-27T16:32:36.957Z,7.40
2019-02-27T16:35:09.733Z,7.30
2019-02-27T16:37:42.884Z,7.30
2019-02-27T16:40:17.997Z,7.20
2019-02-27T16:42:51.079Z,7.20
2019-02-27T16:45:25.000Z,7.20
2019-02-27T16:48:00.775Z,7.10
2019-02-27T16:50:32.745Z,7.10
2019-02-27T16:53:07.521Z,7.10
2019-02-27T16:55:39.701Z,7.10
2019-02-27T16:58:12.766Z,7.10
2019-02-27T17:00:54.196Z,7.00
2019-02-27T17:03:24.599Z,7.00
2019-02-27T17:05:54.791Z,6.90
2019-02-27T17:08:25.027Z,6.90
2019-02-27T17:10:55.974Z,6.90
2019-02-27T17:13:27.463Z,6.90
2019-02-27T17:15:58.390Z,6.80
2019-02-27T17:18:29.045Z,6.90
2019-02-27T17:20:59.011Z,6.90
2019-02-27T17:23:32.934Z,6.90
2019-02-27T17:26:07.937Z,6.90
2019-02-27T17:28:38.433Z,6.90
2019-02-27T17:31:12.245Z,6.90
2019-02-27T17:33:43.871Z,6.90
2019-02-27T17:36:13.951Z,6.90
2019-02-27T17:38:49.952Z,7.00
2019-02-27T17:41:22.254Z,7.00
2019-02-27T17:43:55.231Z,7.00
2019-02-27T17:46:28.927Z,7.00
2019-02-27T17:49:00.927Z,7.00
2019-02-27T17:51:34.654Z,7.10
2019-02-27T17:54:07.359Z,7.10
2019-02-27T17:56:43.583Z,7.10
2019-02-27T17:59:17.339Z,7.10
2019-02-27T18:01:51.422Z,7.10
2019-02-27T18:04:24.790Z,7.10
2019-02-27T18:07:00.442Z,7.10
2019-02-27T18:09:32.962Z,7.00
2019-02-27T18:12:05.793Z,7.10
2019-02-27T18:14:43.871Z,7.10
2019-02-27T18:17:16.223Z,7.10
2019-02-27T18:19:50.194Z,7.10
2019-02-27T18:22:22.527Z,7.10
2019-02-27T18:24:55.128Z,7.10
2019-02-27T18:27:28.839Z,7.10
2019-02-27T18:29:59.059Z,7.10
2019-02-27T18:32:29.237Z,7.10
2019-02-27T18:35:01.939Z,7.00
2019-02-27T18:37:33.832Z,7.00
2019-02-27T18:40:08.343Z,7.00
2019-02-27T18:42:46.750Z,7.00
2019-02-27T18:45:18.206Z,6.90
2019-02-27T18:47:51.435Z,6.90
2019-02-27T18:50:25.646Z,6.90
2019-02-27T18:52:59.107Z,6.90
2019-02-27T18:55:35.022Z,6.90
2019-02-27T18:58:07.899Z,7.00
2019-02-27T19:00:41.215Z,7.00
2019-02-27T19:03:14.922Z,7.00
2019-02-27T19:05:48.895Z,7.00
2019-02-27T19:08:21.731Z,7.00
2019-02-27T19:10:54.692Z,7.00
2019-02-27T19:13:28.386Z,7.00
2019-02-27T19:16:00.670Z,7.00
2019-02-27T19:18:34.118Z,7.00
2019-02-27T19:21:06.879Z,7.00
2019-02-27T19:23:40.451Z,7.00
2019-02-27T19:26:16.392Z,7.00
2019-02-27T19:28:52.191Z,7.00
2019-02-27T19:31:24.938Z,7.00
2019-02-27T19:33:56.547Z,7.00
2019-02-27T19:36:31.444Z,7.00
2019-02-27T19:39:05.983Z,7.00
2019-02-27T19:41:42.275Z,7.00
2019-02-27T19:44:15.250Z,6.90
2019-02-27T19:46:47.418Z,6.90
2019-02-27T19:49:18.880Z,6.90
2019-02-27T19:51:54.559Z,6.90
2019-02-27T19:54:26.697Z,6.90
2019-02-27T19:56:57.860Z,6.90
2019-02-27T19:59:30.915Z,6.90
2019-02-27T20:02:05.791Z,6.90
2019-02-27T20:04:35.947Z,6.90
2019-02-27T20:07:09.191Z,6.80
2019-02-27T20:09:42.978Z,6.80
2019-02-27T20:12:17.153Z,6.80
2019-02-27T20:14:51.714Z,6.80
2019-02-27T20:17:26.625Z,6.80
2019-02-27T20:20:00.511Z,6.80
2019-02-27T20:22:32.839Z,6.70
2019-02-27T20:25:06.494Z,6.70
2019-02-27T20:27:37.822Z,6.70
2019-02-27T20:30:14.283Z,6.70
2019-02-27T20:32:49.258Z,6.70
2019-02-27T20:35:23.519Z,6.60
2019-02-27T20:37:56.671Z,6.60
2019-02-27T20:40:34.165Z,6.60
2019-02-27T20:43:02.730Z,6.60
2019-02-27T20:45:34.156Z,6.60
2019-02-27T20:48:08.299Z,6.60
2019-02-27T20:50:41.771Z,6.60
2019-02-27T20:53:14.367Z,6.60
2019-02-27T20:55:48.320Z,6.50
2019-02-27T20:58:22.315Z,6.50
2019-02-27T21:00:57.059Z,6.50
2019-02-27T21:03:29.412Z,6.40
2019-02-27T21:06:04.351Z,6.30
2019-02-27T21:08:40.032Z,6.20
2019-02-27T21:11:13.266Z,6.20
2019-02-27T21:13:49.349Z,6.20
2019-02-27T21:16:21.605Z,6.30
2019-02-27T21:18:56.247Z,6.20
2019-02-27T21:21:27.751Z,6.20
2019-02-27T21:23:58.611Z,6.20
2019-02-27T21:26:32.606Z,6.20
2019-02-27T21:29:08.841Z,6.20
2019-02-27T21:31:41.091Z,6.20
2019-02-27T21:34:19.286Z,6.20
2019-02-27T21:36:49.983Z,6.20
2019-02-27T21:39:25.269Z,6.20
2019-02-27T21:41:57.952Z,6.10
2019-02-27T21:44:31.318Z,6.10
2019-02-27T21:47:06.219Z,6.10
2019-02-27T21:49:38.711Z,6.10
2019-02-27T21:52:11.851Z,6.10
2019-02-27T21:54:44.963Z,6.00
2019-02-27T21:57:18.075Z,6.00
2019-02-27T21:59:49.837Z,6.00
2019-02-27T22:02:22.251Z,5.90
2019-02-27T22:04:56.102Z,6.00
2019-02-27T22:07:32.951Z,6.00
2019-02-27T22:10:03.770Z,6.00
2019-02-27T22:12:37.599Z,6.00
2019-02-27T22:15:14.562Z,6.00
2019-02-27T22:17:48.673Z,5.90
2019-02-27T22:20:25.904Z,5.90
2019-02-27T22:22:58.624Z,5.90
2019-02-27T22:25:31.228Z,5.80
2019-02-27T22:28:04.308Z,5.80
2019-02-27T22:30:37.182Z,5.70
2019-02-27T22:33:09.823Z,5.70
2019-02-27T22:35:42.921Z,5.60
2019-02-27T22:38:14.453Z,5.60
2019-02-27T22:40:45.078Z,5.60
2019-02-27T22:43:15.378Z,5.60
2019-02-27T22:45:49.287Z,5.50
2019-02-27T22:48:27.676Z,5.50
2019-02-27T22:51:01.922Z,5.50
2019-02-27T22:53:35.749Z,5.50
2019-02-27T22:56:09.293Z,5.40
2019-02-27T22:58:45.133Z,5.40
2019-02-27T23:01:27.820Z,5.40
2019-02-27T23:04:05.893Z,5.40
2019-02-27T23:06:43.712Z,5.30
2019-02-27T23:09:21.837Z,5.30
2019-02-27T23:11:54.363Z,5.20
2019-02-27T23:14:30.084Z,5.10
2019-02-27T23:17:05.065Z,5.10
2019-02-27T23:19:39.743Z,5.00
2019-02-27T23:22:13.445Z,5.00
2019-02-27T23:24:44.652Z,5.00
2019-02-27T23:27:18.560Z,5.00
2019-02-27T23:29:48.307Z,5.00
2019-02-27T23:32:20.387Z,5.00
2019-02-27T23:34:51.455Z,4.90
2019-02-27T23:37:22.923Z,5.00
2019-02-27T23:39:57.395Z,5.00
2019-02-27T23:42:31.103Z,5.00
2019-02-27T23:45:03.903Z,5.00
2019-02-27T23:47:38.495Z,5.00
2019-02-27T23:50:12.023Z,5.00
2019-02-27T23:52:53.186Z,5.10
2019-02-27T23:55:28.393Z,5.00
2019-02-27T23:57:58.572Z,5.00
